Flight Track Log - Related Links

Times and Time Zones

All times are in EDT time to prevent confusion due to time zone crossing. See the UAL395 flight status page for this flight to view local times or setup timezone preferences in your user account.

Time Position Orientation Groundspeed Altitude Reporting Facility
EDT Latitude Longitude Course Direction KTS MPH feet Rate Location/Type
Sun 10:19:31 AM 29.9864 -95.3600 276° West 157 181 1,000  Level Houston Center
Sun 10:21:03 AM 29.9933 -95.4603 275° West 229 264 5,000 2,824 Climbing Houston Center
Sun 10:22:00 AM 30.0247 -95.7051 276° West  Level FlightAware Approximate
Sun 10:22:04 AM 30.0006 -95.5392 276° West 247 284 8,200  Level Houston Center
Sun 10:23:00 AM 30.0358 -95.8298 276° West  Level FlightAware Approximate
Sun 10:23:05 AM 30.0117 -95.6175 279° West 250 288 10,700  Level Houston Center
Sun 10:24:00 AM 30.0462 -95.9546 276° West  Level FlightAware Approximate
Sun 10:24:20 AM 30.0289 -95.7414 279° West 317 365 13,100  Level Houston Center
Sun 10:25:00 AM 30.0690 -96.0760 276° West  Level FlightAware Approximate
Sun 10:25:22 AM 30.0433 -95.8478 279° West 337 388 15,500  Level Houston Center
Sun 10:26:23 AM 30.0583 -95.9578 279° West 347 399 17,800 2,195 Climbing Houston Center
Sun 10:27:25 AM 30.0736 -96.0817 278° West 361 415 20,000 2,000 Climbing Houston Center
Sun 10:28:26 AM 30.0922 -96.1994 280° West 374 430 21,900 1,902 Climbing Houston Center
Sun 10:29:28 AM 30.1097 -96.3186 280° West 379 436 23,900 1,707 Climbing Houston Center
Sun 10:30:29 AM 30.1289 -96.4372 281° West 386 444 25,400 1,415 Climbing Houston Center
Sun 10:31:31 AM 30.1467 -96.5661 279° West 400 460 26,800 1,122 Climbing Houston Center
Sun 10:32:32 AM 30.1675 -96.6950 281° West 405 466 27,700 585 Climbing Houston Center
Sun 10:33:34 AM 30.1872 -96.8269 280° West 410 472 28,000 732 Climbing Houston Center
Sun 10:34:35 AM 30.2108 -96.9811 280° West 412 474 29,200 1,220 Climbing Houston Center
Sun 10:35:37 AM 30.2303 -97.1167 279° West 422 486 30,500 1,415 Climbing Houston Center
Sun 10:36:38 AM 30.2503 -97.2511 280° West 418 481 32,100 1,415 Climbing Houston Center
Sun 10:37:40 AM 30.2686 -97.3850 279° West 416 479 33,400 927 Climbing Houston Center
Sun 10:38:41 AM 30.2881 -97.5172 280° West 410 472 34,000 293 Climbing Houston Center
Sun 10:39:43 AM 30.3072 -97.6494 280° West 411 473 34,000  Level Houston Center
Sun 10:40:44 AM 30.3244 -97.7783 279° West 403 464 34,000  Level Houston Center
Sun 10:41:46 AM 30.3425 -97.9072 279° West 401 461 34,000  Level Houston Center
Sun 10:42:47 AM 30.3619 -98.0381 280° West 405 466 34,000  Level Houston Center
Sun 10:43:49 AM 30.3811 -98.1697 280° West 408 470 34,000  Level Houston Center
Sun 10:44:50 AM 30.3994 -98.3017 279° West 411 473 34,000  Level Houston Center
Sun 10:45:52 AM 30.4178 -98.4333 279° West 410 472 34,000  Level Houston Center
Sun 10:46:54 AM 30.4386 -98.5639 281° West 406 467 34,000  Level Houston Center
Sun 10:47:55 AM 30.4733 -98.6903 288° West 407 468 34,000  Level Houston Center
Sun 10:48:57 AM 30.5108 -98.8156 289° West 407 468 34,000  Level Houston Center
Sun 10:49:59 AM 30.5511 -98.9614 288° West 404 465 34,000  Level Houston Center
Sun 10:51:00 AM 30.5875 -99.0869 289° West 405 466 34,000  Level Houston Center
Sun 10:52:01 AM 30.6175 -99.2011 287° West 406 467 34,000  Level Houston Center
Sun 10:53:03 AM 30.6528 -99.3247 288° West 406 467 34,000  Level Houston Center
Sun 10:54:04 AM 30.6875 -99.4494 288° West 407 468 34,000  Level Houston Center
Sun 10:55:06 AM 30.7269 -99.5972 287° West 403 464 34,000  Level Houston Center
Sun 10:56:07 AM 30.7614 -99.7214 288° West 405 466 34,000  Level Houston Center
Sun 10:57:09 AM 30.7950 -99.8469 287° West 407 468 34,000  Level Houston Center
Sun 10:58:11 AM 30.8292 -99.9708 288° West 405 466 34,000  Level Houston Center
Sun 10:59:12 AM 30.8614 -100.0947 287° West 404 465 34,000  Level Houston Center
Sun 11:00:14 AM 30.8953 -100.2197 288° West 406 467 34,000  Level Houston Center
Sun 11:01:15 AM 30.9353 -100.3675 288° West 403 464 34,000  Level Houston Center
Sun 11:02:17 AM 30.9678 -100.4914 287° West 403 464 34,000  Level Houston Center
Sun 11:03:18 AM 31.0003 -100.6139 287° West 399 459 34,000  Level Houston Center
Sun 11:04:20 AM 31.0325 -100.7381 287° West 402 463 34,000  Level Houston Center
Sun 11:05:22 AM 31.0644 -100.8614 287° West 402 463 34,000  Level Houston Center
Sun 11:06:23 AM 31.0961 -100.9853 287° West 402 463 34,000  Level Houston Center
Sun 11:07:25 AM 31.1281 -101.1086 287° West 401 461 34,000  Level Houston Center
Sun 11:08:26 AM 31.1694 -101.2519 289° West 392 451 34,000  Level Houston Center
Sun 11:09:28 AM 31.2258 -101.3667 300° West 407 468 34,000  Level Houston Center
Sun 11:10:30 AM 31.3058 -101.4567 316° Northwest 403 464 34,000  Level Houston Center
Sun 11:11:31 AM 31.3872 -101.5464 317° Northwest 404 465 34,000  Level Houston Center
Sun 11:12:03 AM 31.4336 -101.6008 315° West 401 461 34,000  Level Fort Worth Center
Sun 11:13:03 AM 31.5142 -101.6922 316° Northwest 401 461 34,000  Level Fort Worth Center
Sun 11:14:03 AM 31.5967 -101.7839 317° Northwest 401 461 34,000  Level Fort Worth Center
Sun 11:15:03 AM 31.6769 -101.8756 316° Northwest 401 461 34,000  Level Fort Worth Center
Sun 11:16:03 AM 31.7592 -101.9650 317° Northwest 401 461 34,000  Level Fort Worth Center
Sun 11:17:03 AM 31.8433 -102.0644 315° West 406 467 34,000  Level Fort Worth Center
Sun 11:18:03 AM 31.9214 -102.1542 316° Northwest 411 473 34,000  Level Fort Worth Center
Sun 11:19:03 AM 32.0033 -102.2489 316° Northwest 411 473 34,000  Level Fort Worth Center
Sun 11:20:03 AM 32.0853 -102.3417 316° Northwest 406 467 34,000  Level Fort Worth Center
Sun 11:21:03 AM 32.1628 -102.4367 314° West 406 467 34,000  Level Fort Worth Center
Sun 11:22:03 AM 32.2447 -102.5294 316° Northwest 406 467 34,000  Level Fort Worth Center
Sun 11:23:03 AM 32.3264 -102.6250 315° West 406 467 34,000  Level Fort Worth Center
Sun 11:24:03 AM 32.3981 -102.7103 315° West 406 467 34,000  Level Fort Worth Center
Sun 11:25:03 AM 32.4817 -102.8039 317° Northwest 411 473 34,000  Level Fort Worth Center
Sun 11:26:03 AM 32.5631 -102.8975 316° Northwest 411 473 34,000  Level Fort Worth Center
Sun 11:27:03 AM 32.6444 -102.9911 316° Northwest 411 473 34,000  Level Fort Worth Center
Sun 11:28:03 AM 32.7239 -103.0850 315° West 411 473 34,000  Level Fort Worth Center
Sun 11:29:43 AM 32.8661 -103.2508 316° Northwest 411 473 34,000  Level Albuquerque Center
Sun 11:30:45 AM 32.9475 -103.3456 316° Northwest 410 472 34,000  Level Albuquerque Center
Sun 11:31:46 AM 33.0292 -103.4428 315° West 413 475 34,000  Level Albuquerque Center
Sun 11:32:48 AM 33.1097 -103.5383 315° West 411 473 34,000  Level Albuquerque Center
Sun 11:33:50 AM 33.1906 -103.6358 315° West 413 475 34,000  Level Albuquerque Center
Sun 11:34:51 AM 33.2892 -103.7453 317° Northwest 419 482 34,000  Level Albuquerque Center
Sun 11:35:53 AM 33.3706 -103.8442 315° West 419 482 34,000  Level Albuquerque Center
Sun 11:36:55 AM 33.4511 -103.9414 315° West 416 479 34,000  Level Albuquerque Center
Sun 11:37:56 AM 33.5336 -104.0519 312° West 415 478 34,000  Level Albuquerque Center
Sun 11:38:58 AM 33.6008 -104.1631 306° West 414 476 34,000  Level Albuquerque Center
Sun 11:40:00 AM 33.6733 -104.2831 306° West 415 478 34,000  Level Albuquerque Center
Sun 11:41:01 AM 33.7417 -104.3947 306° West 416 479 34,000  Level Albuquerque Center
Sun 11:42:03 AM 33.8097 -104.5061 306° West 416 479 34,000  Level Albuquerque Center
Sun 11:43:05 AM 33.8825 -104.6269 306° West 416 479 34,000  Level Albuquerque Center
Sun 11:44:06 AM 33.9506 -104.7381 306° West 415 478 34,000  Level Albuquerque Center
Sun 11:45:08 AM 34.0239 -104.8558 307° West 415 478 34,000  Level Albuquerque Center
Sun 11:46:10 AM 34.0928 -104.9689 306° West 415 478 34,000  Level Albuquerque Center
Sun 11:47:11 AM 34.1631 -105.0850 306° West 419 482 34,000  Level Albuquerque Center
Sun 11:48:13 AM 34.2317 -105.2006 306° West 420 483 34,000  Level Albuquerque Center
Sun 11:49:14 AM 34.3008 -105.3156 306° West 419 482 34,000  Level Albuquerque Center
Sun 11:50:16 AM 34.3700 -105.4317 306° West 418 481 34,000  Level Albuquerque Center
Sun 11:51:18 AM 34.4408 -105.5492 306° West 423 487 34,000  Level Albuquerque Center
Sun 11:52:19 AM 34.5092 -105.6664 305° West 423 487 34,000  Level Albuquerque Center
Sun 11:53:21 AM 34.5789 -105.7831 306° West 423 487 34,000  Level Albuquerque Center
Sun 11:54:22 AM 34.6486 -105.9003 306° West 424 488 34,000  Level Albuquerque Center
Sun 11:55:24 AM 34.7172 -106.0181 305° West 423 487 34,000  Level Albuquerque Center
Sun 11:56:26 AM 34.7964 -106.1544 305° West 420 483 34,000  Level Albuquerque Center
Sun 11:57:27 AM 34.8628 -106.2692 305° West 421 484 34,000  Level Albuquerque Center
Sun 11:58:29 AM 34.9317 -106.3869 306° West 425 489 34,000  Level Albuquerque Center
Sun 11:59:30 AM 35.0006 -106.5036 306° West 426 490 34,000  Level Albuquerque Center
Sun 12:00:32 PM 35.0667 -106.6239 304° West 431 496 34,000  Level Albuquerque Center
Sun 12:01:33 PM 35.1444 -106.7533 306° West 425 489 34,000  Level Albuquerque Center
Sun 12:02:35 PM 35.2081 -106.8672 304° West 425 489 34,000  Level Albuquerque Center
Sun 12:03:37 PM 35.2811 -107.0019 304° West 424 488 34,000 49 Level Albuquerque Center
Sun 12:04:38 PM 35.3136 -107.1319 287° West 415 478 34,100 726 Climbing Albuquerque Center
Sun 12:05:41 PM 35.3475 -107.2664 287° West 421 484 35,500 919 Climbing Albuquerque Center
Sun 12:06:42 PM 35.3833 -107.4131 287° West 413 475 36,000 244 Climbing Albuquerque Center
Sun 12:07:44 PM 35.4161 -107.5406 288° West 410 472 36,000  Level Albuquerque Center
Sun 12:08:45 PM 35.4519 -107.6881 287° West 406 467 36,000  Level Albuquerque Center
Sun 12:09:47 PM 35.4825 -107.8144 287° West 404 465 36,000  Level Albuquerque Center
Sun 12:10:49 PM 35.5194 -107.9617 287° West 404 465 36,000  Level Albuquerque Center
Sun 12:11:50 PM 35.5514 -108.0886 287° West 405 466 36,000  Level Albuquerque Center
Sun 12:12:52 PM 35.5872 -108.2367 287° West 404 465 36,000  Level Albuquerque Center
Sun 12:13:54 PM 35.6175 -108.3625 287° West 401 461 36,000  Level Albuquerque Center
Sun 12:14:56 PM 35.6489 -108.4900 287° West 404 465 36,000  Level Albuquerque Center
Sun 12:15:58 PM 35.6842 -108.6369 287° West 401 461 36,000  Level Albuquerque Center
Sun 12:16:59 PM 35.7144 -108.7633 286° West 399 459 36,000  Level Albuquerque Center
Sun 12:18:01 PM 35.7494 -108.9119 286° West 401 461 36,000  Level Albuquerque Center
Sun 12:19:03 PM 35.7797 -109.0400 286° West 403 464 36,000  Level Albuquerque Center
Sun 12:20:05 PM 35.8092 -109.1689 286° West 405 466 36,000  Level Albuquerque Center
Sun 12:21:07 PM 35.8442 -109.3178 286° West 404 465 36,000  Level Albuquerque Center
Sun 12:22:09 PM 35.8744 -109.4461 286° West 405 466 36,000  Level Albuquerque Center
Sun 12:23:11 PM 35.9086 -109.5947 286° West 403 464 36,000  Level Albuquerque Center
Sun 12:23:52 PM 35.9272 -109.6825 285° West 408 470 36,000  Level Denver Center
Sun 12:24:54 PM 35.9311 -109.8139 272° West 404 465 36,000  Level Denver Center
Sun 12:25:56 PM 35.9356 -109.9681 272° West 403 464 36,000  Level Denver Center
Sun 12:26:58 PM 35.9394 -110.0986 272° West 400 460 36,000  Level Denver Center
Sun 12:28:00 PM 35.9431 -110.2328 272° West 403 464 36,000  Level Denver Center
Sun 12:29:02 PM 35.9478 -110.3986 272° West 404 465 36,000  Level Denver Center
Sun 12:30:04 PM 35.9514 -110.5367 272° West 403 464 36,000  Level Denver Center
Sun 12:31:06 PM 35.9556 -110.6728 272° West 400 460 36,000  Level Denver Center
Sun 12:32:08 PM 35.9597 -110.8106 272° West 402 463 36,000  Level Denver Center
Sun 12:33:10 PM 35.9625 -110.9478 271° West 401 461 36,000  Level Denver Center
Sun 12:34:12 PM 35.9658 -111.0831 272° West 398 458 36,000  Level Denver Center
Sun 12:35:14 PM 35.9700 -111.2450 272° West 395 455 36,000  Level Denver Center
Sun 12:36:16 PM 35.9728 -111.3803 271° West 395 455 36,000  Level Denver Center
Sun 12:37:18 PM 35.9758 -111.5161 272° West 395 455 36,000  Level Denver Center
Sun 12:38:20 PM 35.9783 -111.6519 271° West 396 456 36,000  Level Denver Center
Sun 12:39:22 PM 35.9800 -111.7892 271° West 399 459 36,000  Level Denver Center
Sun 12:40:24 PM 35.9825 -111.9261 271° West 400 460 36,000  Level Denver Center
Sun 12:41:26 PM 35.9853 -112.0908 271° West 400 460 36,000  Level Denver Center
Sun 12:42:28 PM 35.9875 -112.2292 271° West 402 463 36,000  Level Denver Center
Sun 12:43:30 PM 35.9897 -112.3678 271° West 403 464 36,000  Level Denver Center
Sun 12:44:45 PM 35.9906 -112.5325 270° West 399 459 36,000  Level Los Angeles Center
Sun 12:45:47 PM 35.9936 -112.6694 272° West 398 458 36,000  Level Los Angeles Center
Sun 12:46:49 PM 35.9947 -112.8069 271° West 398 458 36,000  Level Los Angeles Center
Sun 12:47:51 PM 35.9961 -112.9725 271° West 400 460 36,000  Level Los Angeles Center
Sun 12:48:53 PM 35.9967 -113.1083 270° West 396 456 36,000  Level Los Angeles Center
Sun 12:49:55 PM 35.9983 -113.2444 271° West 396 456 36,000  Level Los Angeles Center
Sun 12:50:57 PM 35.9981 -113.3781 270° West 397 457 36,000  Level Los Angeles Center
Sun 12:51:59 PM 35.9992 -113.5142 271° West 396 456 36,000  Level Los Angeles Center
Sun 12:53:02 PM 35.9992 -113.6792 270° West 400 460 36,000  Level Los Angeles Center
Sun 12:54:04 PM 35.9994 -113.8158 270° West 399 459 36,000  Level Los Angeles Center
Sun 12:55:06 PM 36.0100 -113.9528 275° West 400 460 36,000  Level Los Angeles Center
Sun 12:56:08 PM 36.0411 -114.0883 286° West 409 471 36,000 242 Level Los Angeles Center
Sun 12:57:10 PM 36.0706 -114.2236 285° West 408 470 36,500 677 Climbing Los Angeles Center
Sun 12:58:12 PM 36.1003 -114.3608 285° West 412 474 37,400 726 Climbing Los Angeles Center
Sun 12:59:14 PM 36.1356 -114.5275 285° West 417 480 38,000 290 Climbing Los Angeles Center
Sun 01:00:16 PM 36.1653 -114.6647 285° West 414 476 38,000  Level Los Angeles Center
Sun 01:01:18 PM 36.1942 -114.8036 284° West 416 479 38,000  Level Los Angeles Center
Sun 01:02:20 PM 36.2239 -114.9408 285° West 415 478 38,000  Level Los Angeles Center
Sun 01:03:23 PM 36.2528 -115.0803 284° West 417 480 38,000  Level Los Angeles Center
Sun 01:04:25 PM 36.2817 -115.2194 284° West 419 482 38,000  Level Los Angeles Center
Sun 01:05:27 PM 36.3161 -115.3864 284° West 419 482 38,000  Level Los Angeles Center
Sun 01:06:29 PM 36.3442 -115.5247 284° West 421 484 38,000  Level Los Angeles Center
Sun 01:07:31 PM 36.3708 -115.6606 284° West 427 491 38,000  Level Los Angeles Center
Sun 01:08:33 PM 36.4044 -115.8300 284° West 427 491 38,000  Level Los Angeles Center
Sun 01:09:35 PM 36.4328 -115.9742 284° West 425 489 38,000  Level Los Angeles Center
Sun 01:10:37 PM 36.4611 -116.1181 284° West 428 493 38,000  Level Los Angeles Center
Sun 01:11:39 PM 36.4892 -116.2575 284° West 430 495 38,000  Level Los Angeles Center
Sun 01:12:41 PM 36.5169 -116.4022 283° West 432 497 38,000  Level Los Angeles Center
Sun 01:13:44 PM 36.5458 -116.5525 283° West 429 494 38,000  Level Los Angeles Center
Sun 01:14:46 PM 36.5750 -116.6972 284° West 430 495 38,000  Level Los Angeles Center
Sun 01:15:48 PM 36.6086 -116.8725 283° West 432 497 38,000  Level Los Angeles Center
Sun 01:16:50 PM 36.6339 -117.0072 283° West 430 495 38,000  Level Los Angeles Center
Sun 01:17:52 PM 36.6611 -117.1542 283° West 435 501 38,000  Level Los Angeles Center
Sun 01:18:54 PM 36.6883 -117.2992 283° West 433 498 38,000  Level Los Angeles Center
Sun 01:19:56 PM 36.7158 -117.4431 283° West 431 496 38,000  Level Los Angeles Center
Sun 01:20:58 PM 36.7469 -117.6161 283° West 429 494 38,000  Level Los Angeles Center
Sun 01:22:00 PM 36.7742 -117.7619 283° West 432 497 38,000 -145 Level Los Angeles Center
Sun 01:23:02 PM 36.8031 -117.9256 282° West 433 498 37,700 -726 Descending Los Angeles Center
Sun 01:24:04 PM 36.8314 -118.0736 283° West 436 502 36,500 -823 Descending Los Angeles Center
Sun 01:25:06 PM 36.8569 -118.2225 282° West 436 502 36,000 -720 Descending Los Angeles Center
Sun 01:26:09 PM 36.8831 -118.3739 282° West 426 490 35,000 -1,065 Descending Los Angeles Center
Sun 01:26:53 PM 36.8986 -118.4764 281° West 422 486 34,100 -914 Descending Oakland Center
Sun 01:27:54 PM 36.9283 -118.6308 284° West 437 503 33,400 -1,721 Descending Oakland Center
Sun 01:28:55 PM 36.9519 -118.7767 281° West 431 496 30,600 -2,390 Descending Oakland Center
Sun 01:29:57 PM 36.9803 -118.9264 283° West 436 502 28,500 -1,805 Descending Oakland Center
Sun 01:30:58 PM 37.0039 -119.0694 282° West 422 486 26,900 -1,512 Descending Oakland Center
Sun 01:32:00 PM 37.0256 -119.2061 281° West 401 461 25,400 -1,707 Descending Oakland Center
Sun 01:33:01 PM 37.0481 -119.3408 282° West 378 435 23,400 -1,951 Descending Oakland Center
Sun 01:34:03 PM 37.0708 -119.4803 282° West 401 461 21,400 -1,659 Descending Oakland Center
Sun 01:35:04 PM 37.0928 -119.6156 282° West 401 461 20,000 -683 Descending Oakland Center
Sun 01:36:06 PM 37.1189 -119.7819 281° West 408 470 20,000  Level Oakland Center
Sun 01:37:07 PM 37.1411 -119.9236 281° West 401 461 20,000 -393 Level Oakland Center
Sun 01:38:08 PM 37.1642 -120.0658 282° West 412 474 19,200 -1,707 Descending Oakland Center
Sun 01:39:10 PM 37.1850 -120.2025 281° West 401 461 16,500 -2,537 Descending Oakland Center
Sun 01:40:11 PM 37.2058 -120.3375 281° West 392 451 14,000 -2,304 Descending Oakland Center
Sun 01:41:02 PM 37.2000 -120.4500 266° West 397 457 12,200 -1,892 Descending Northern Cal TRACON
Sun 01:42:02 PM 37.1833 -120.5833 261° West 377 434 10,500 -1,091 Descending Northern Cal TRACON
Sun 01:43:03 PM 37.1500 -120.7000 250° West 354 407 10,000 -248 Descending Northern Cal TRACON
Sun 01:44:03 PM 37.1333 -120.8167 260° West 354 407 10,000  Level Northern Cal TRACON
Sun 01:45:03 PM 37.1000 -120.9333 250° West 354 407 10,000  Level Northern Cal TRACON
Sun 01:45:18 PM 37.1031 -120.9453 288° West 341 392 10,000  Level Oakland Center
Sun 01:46:20 PM 37.0764 -121.0647 254° West 352 405 10,000  Level Oakland Center
Sun 01:47:21 PM 37.0467 -121.2006 255° West 355 409 10,000 -49 Level Oakland Center
Sun 01:48:23 PM 37.0203 -121.3206 255° West 357 411 9,900 -49 Descending Oakland Center
Sun 01:49:24 PM 36.9947 -121.4381 255° West 354 407 9,900 -390 Level Oakland Center
Sun 01:50:26 PM 37.0128 -121.5358 283° West 308 354 9,100 -976 Descending Oakland Center
Sun 01:51:27 PM 37.0433 -121.6294 292° West 294 338 7,900 -984 Descending Oakland Center
Sun 01:52:28 PM 37.0719 -121.7242 291° West 292 336 7,100 -1,024 Descending Oakland Center
Sun 01:53:30 PM 37.1033 -121.8133 294° West 285 328 5,800 -1,137 Descending Oakland Center
Sun 01:54:03 PM 37.1333 -121.8667 305° West 289 333 5,300 -689 Descending Northern Cal TRACON
Sun 01:54:31 PM 37.1644 -121.8967 322° Northwest 286 329 5,100 -133 Descending Oakland Center
Sun 01:55:33 PM 37.2350 -121.9369 336° Northwest 283 326 5,100 -195 Level Oakland Center
Sun 01:56:34 PM 37.3056 -121.9800 334° Northwest 280 322 4,700 -836 Descending Oakland Center
Sun 01:57:35 PM 37.3569 -122.0450 315° West 270 311 3,400 -1,281 Descending Oakland Center
Sun 01:58:03 PM 37.3833 -122.0833 311° West 267 307 2,800 -1,286 Descending Northern Cal TRACON

Login

Don't have an account? Register now (free) for customized features, flight alerts, and more!